Time;durP1;ratioP1;P1;durP2;ratioP2;P2;SDS_P1;SDS_P2;PMS_P1;PMS_P2;Temp;Humidity;BMP_temperature;BMP_pressure;BME280_temperature;BME280_humidity;BME280_pressure;Samples;Min_cycle;Max_cycle;Signal;HPM_P1;HPM_P2
2021/08/22 00:01:35;;;;;;;9.20;7.80;;;18.30;99.90;;;;;;5021379;28;20068;-94
2021/08/22 00:04:00;;;;;;;7.75;7.05;;;18.40;99.90;;;;;;4989091;28;20111;-94
2021/08/22 00:06:26;;;;;;;7.40;6.70;;;18.50;99.90;;;;;;5021359;28;20031;-93
2021/08/22 00:08:51;;;;;;;7.75;6.70;;;18.50;99.90;;;;;;5021509;28;20039;-96
2021/08/22 00:11:17;;;;;;;7.35;6.63;;;18.50;99.90;;;;;;5021451;28;20038;-95
2021/08/22 00:13:43;;;;;;;8.02;7.32;;;18.40;99.90;;;;;;5021448;28;20030;-94
2021/08/22 00:16:08;;;;;;;9.75;7.55;;;18.40;99.90;;;;;;5020334;28;20045;-93
2021/08/22 00:18:34;;;;;;;7.65;6.85;;;18.30;99.90;;;;;;4985596;28;20062;-93
2021/08/22 00:21:00;;;;;;;6.72;6.05;;;18.30;99.90;;;;;;4969256;28;20038;-94
2021/08/22 00:23:28;;;;;;;7.45;6.75;;;18.20;99.90;;;;;;4985595;28;20045;-95
2021/08/22 00:25:53;;;;;;;7.90;6.55;;;18.20;99.90;;;;;;4988981;28;20061;-95
2021/08/22 00:28:19;;;;;;;7.78;7.07;;;18.20;99.90;;;;;;5021441;28;20030;-95
2021/08/22 00:30:45;;;;;;;7.55;6.78;;;18.30;99.90;;;;;;5020945;28;20044;-94
2021/08/22 00:33:10;;;;;;;8.23;7.47;;;18.30;99.90;;;;;;5037535;28;20035;-92
2021/08/22 00:35:36;;;;;;;10.68;8.07;;;18.30;99.90;;;;;;5022199;28;20034;-92
2021/08/22 00:38:02;;;;;;;8.57;7.40;;;18.30;99.90;;;;;;5024759;28;20030;-94
2021/08/22 00:40:27;;;;;;;7.78;7.13;;;18.30;99.90;;;;;;4992109;28;20034;-94
2021/08/22 00:42:53;;;;;;;7.20;6.50;;;18.20;99.90;;;;;;5024523;28;20041;-94
2021/08/22 00:45:19;;;;;;;7.88;7.13;;;18.30;99.90;;;;;;5024789;28;20069;-93
2021/08/22 00:47:45;;;;;;;8.45;7.65;;;18.20;99.90;;;;;;5024441;28;20026;-94
2021/08/22 00:50:14;;;;;;;9.07;8.15;;;18.20;99.90;;;;;;5024790;28;20041;-94
2021/08/22 00:52:40;;;;;;;8.82;7.97;;;18.20;99.90;;;;;;5024455;28;20057;-95
2021/08/22 00:55:06;;;;;;;8.15;7.40;;;18.10;99.90;;;;;;5024584;28;20037;-95
2021/08/22 00:57:33;;;;;;;8.80;7.90;;;18.10;99.90;;;;;;5024207;28;20031;-95
2021/08/22 01:00:00;;;;;;;9.30;8.40;;;18.10;99.90;;;;;;5024254;28;20051;-94
2021/08/22 01:02:30;;;;;;;7.93;7.13;;;18.10;99.90;;;;;;5008260;28;20034;-95
2021/08/22 01:05:00;;;;;;;;;;;18.10;99.90;;;;;;5024947;28;20030;-94
2021/08/22 01:07:44;;;;;;;8.23;6.75;;;18.20;99.90;;;;;;5040557;28;19917;-96
2021/08/22 01:10:11;;;;;;;8.48;7.60;;;18.30;99.90;;;;;;5024157;28;20030;-95
2021/08/22 01:12:45;;;;;;;8.50;7.70;;;18.30;99.90;;;;;;5007741;28;20042;-96
2021/08/22 01:15:13;;;;;;;8.57;7.78;;;18.20;99.90;;;;;;5024285;28;20031;-96
2021/08/22 01:17:47;;;;;;;9.23;8.32;;;18.20;99.90;;;;;;5010885;28;20038;-96
2021/08/22 01:20:31;;;;;;;8.88;7.70;;;18.30;99.90;;;;;;4988323;28;20035;-95
2021/08/22 01:22:58;;;;;;;10.73;9.68;;;18.30;99.90;;;;;;4990659;28;20030;-96
2021/08/22 01:25:24;;;;;;;9.82;8.93;;;18.30;99.90;;;;;;4991474;28;20058;-96
2021/08/22 01:27:51;;;;;;;12.30;11.00;;;18.20;99.90;;;;;;4995165;28;20022;-96
2021/08/22 01:30:40;;;;;;;16.83;15.23;;;18.20;99.90;;;;;;4998678;28;20046;-96
2021/08/22 01:35:55;;;;;;;26.55;22.77;;;18.00;99.90;;;;;;5035093;23;20051;-96
2021/08/22 01:38:21;;;;;;;25.52;22.88;;;18.00;99.90;;;;;;4986241;28;20034;-96
2021/08/22 01:51:34;;;;;;;30.35;25.15;;;17.90;99.90;;;;;;5041618;23;20055;-96
2021/08/22 01:59:17;;;;;;;32.33;24.40;;;17.80;99.90;;;;;;5016485;28;20494;-96
2021/08/22 02:04:58;;;;;;;27.67;24.05;;;17.70;99.90;;;;;;5074542;23;20061;-96
2021/08/22 02:07:28;;;;;;;27.92;23.08;;;17.70;99.90;;;;;;4996190;28;20050;-96
2021/08/22 02:12:52;;;;;;;23.30;20.00;;;17.80;99.90;;;;;;4992919;28;20544;-94
2021/08/22 02:17:51;;;;;;;22.60;18.83;;;17.70;99.90;;;;;;5005449;28;20487;-96
2021/08/22 02:20:18;;;;;;;21.40;17.88;;;17.60;99.90;;;;;;4995569;28;20019;-96
2021/08/22 02:22:46;;;;;;;22.48;18.75;;;17.60;99.90;;;;;;5029126;23;20113;-96
2021/08/22 02:25:12;;;;;;;20.25;16.48;;;17.70;99.90;;;;;;5017540;28;20034;-96
2021/08/22 02:27:39;;;;;;;20.77;16.85;;;17.70;99.90;;;;;;4980003;23;20047;-96
2021/08/22 02:30:07;;;;;;;21.88;15.43;;;17.70;99.90;;;;;;4938108;29;20538;-96
2021/08/22 02:32:33;;;;;;;21.45;17.15;;;17.70;99.90;;;;;;4941199;29;20043;-96
2021/08/22 02:35:13;;;;;;;19.73;15.48;;;17.70;99.90;;;;;;4955061;29;20480;-96
2021/08/22 02:37:39;;;;;;;;;;;17.60;99.90;;;;;;4945297;29;20079;-96
2021/08/22 02:40:14;;;;;;;18.20;16.13;;;17.60;99.90;;;;;;4958891;29;19911;-96
2021/08/22 02:42:39;;;;;;;26.10;18.63;;;17.70;99.90;;;;;;4944776;29;20039;-96
2021/08/22 02:45:08;;;;;;;20.10;17.88;;;17.70;99.90;;;;;;4986590;23;20050;-93
2021/08/22 02:47:35;;;;;;;20.20;16.33;;;17.70;99.90;;;;;;5004548;23;20149;-95
2021/08/22 02:50:00;;;;;;;19.75;16.98;;;17.70;99.90;;;;;;4961152;28;20061;-96
2021/08/22 02:52:26;;;;;;;20.20;17.30;;;17.70;99.90;;;;;;4979514;28;20061;-96
2021/08/22 02:57:42;;;;;;;19.38;16.00;;;17.70;99.90;;;;;;5005896;28;20049;-94
2021/08/22 03:00:10;;;;;;;21.55;17.52;;;17.60;99.90;;;;;;4993592;28;20034;-95
2021/08/22 03:02:36;;;;;;;21.08;17.58;;;17.60;99.90;;;;;;4992644;28;20114;-95
2021/08/22 03:05:03;;;;;;;22.02;18.80;;;17.60;99.90;;;;;;5008903;23;20056;-96
2021/08/22 03:07:28;;;;;;;27.75;22.17;;;17.60;99.90;;;;;;4955182;29;20032;-95
2021/08/22 03:09:54;;;;;;;26.83;22.27;;;17.50;99.90;;;;;;4938515;29;20042;-95
2021/08/22 03:12:20;;;;;;;28.08;21.90;;;17.50;99.90;;;;;;4944516;23;20059;-96
2021/08/22 03:14:48;;;;;;;27.42;22.00;;;17.50;99.90;;;;;;4920741;29;20027;-96
2021/08/22 03:17:14;;;;;;;22.77;18.98;;;17.40;99.90;;;;;;4929904;29;20036;-96
2021/08/22 03:19:42;;;;;;;25.45;20.88;;;17.40;99.90;;;;;;4916903;29;20032;-96
2021/08/22 03:22:09;;;;;;;25.83;22.35;;;17.40;99.90;;;;;;4916792;29;20036;-94
2021/08/22 03:24:35;;;;;;;27.33;22.42;;;17.40;99.90;;;;;;4901005;29;20040;-96
2021/08/22 03:27:01;;;;;;;24.35;20.80;;;17.40;99.90;;;;;;4909097;29;20193;-95
2021/08/22 03:29:29;;;;;;;31.20;24.23;;;17.40;99.90;;;;;;4918049;29;20016;-96
2021/08/22 03:31:56;;;;;;;28.50;23.50;;;17.30;99.90;;;;;;4933463;29;20099;-96
2021/08/22 03:34:21;;;;;;;32.03;24.83;;;17.30;99.90;;;;;;4919665;29;20024;-96
2021/08/22 03:37:02;;;;;;;32.22;25.08;;;17.30;99.90;;;;;;4917422;29;20024;-96
2021/08/22 03:39:28;;;;;;;27.60;21.52;;;17.30;99.90;;;;;;4932363;29;20082;-95
2021/08/22 03:41:55;;;;;;;28.92;22.05;;;17.20;99.90;;;;;;4915798;29;20016;-96
2021/08/22 03:44:24;;;;;;;31.17;23.55;;;17.20;99.90;;;;;;4953231;23;20055;-96
2021/08/22 03:46:50;;;;;;;28.67;20.65;;;17.30;99.90;;;;;;4955905;29;20007;-95
2021/08/22 03:49:16;;;;;;;27.88;21.13;;;17.30;99.90;;;;;;4971138;29;20076;-95
2021/08/22 03:51:46;;;;;;;23.60;17.73;;;17.30;99.90;;;;;;4957686;29;20047;-96
2021/08/22 03:54:12;;;;;;;29.13;21.50;;;17.30;99.90;;;;;;4957339;29;20016;-96
2021/08/22 03:56:39;;;;;;;26.23;19.88;;;17.30;99.90;;;;;;4954116;29;20036;-96
2021/08/22 03:59:07;;;;;;;31.60;23.40;;;17.30;99.90;;;;;;4951174;29;20024;-96
2021/08/22 04:01:35;;;;;;;28.15;20.38;;;17.30;99.90;;;;;;4952069;29;20036;-96
2021/08/22 04:04:15;;;;;;;31.10;23.73;;;17.30;99.90;;;;;;5008598;23;20050;-96
2021/08/22 04:06:48;;;;;;;28.52;21.45;;;17.30;99.90;;;;;;5019634;28;20025;-96
2021/08/22 04:09:18;;;;;;;38.75;27.00;;;17.30;99.90;;;;;;5000070;28;20044;-96
2021/08/22 04:11:46;;;;;;;40.22;28.27;;;17.20;99.90;;;;;;5002994;28;20061;-96
2021/08/22 04:14:12;;;;;;;41.10;28.33;;;17.20;99.90;;;;;;5004377;28;20038;-96
2021/08/22 04:16:48;;;;;;;44.03;28.75;;;17.20;99.90;;;;;;5043829;23;20041;-95
2021/08/22 04:19:15;;;;;;;38.55;26.48;;;17.20;99.90;;;;;;4978927;28;20042;-96
2021/08/22 04:21:42;;;;;;;31.08;22.13;;;17.10;99.90;;;;;;4961237;28;20050;-96
2021/08/22 04:24:09;;;;;;;37.97;25.10;;;17.20;99.90;;;;;;4979773;28;20014;-95
2021/08/22 04:26:41;;;;;;;27.20;19.58;;;17.20;99.90;;;;;;4993296;28;20034;-96
2021/08/22 04:29:09;;;;;;;31.38;21.85;;;17.20;99.90;;;;;;4997606;23;20026;-95
2021/08/22 04:31:34;;;;;;;34.92;22.17;;;17.20;99.90;;;;;;4973786;28;20058;-96
2021/08/22 04:34:02;;;;;;;35.95;25.75;;;17.20;99.90;;;;;;4974342;28;20035;-96
2021/08/22 04:36:28;;;;;;;38.33;26.88;;;17.20;99.90;;;;;;4959581;28;20107;-95
2021/08/22 04:38:54;;;;;;;39.53;27.52;;;17.20;99.90;;;;;;4957783;28;20102;-96
2021/08/22 04:41:20;;;;;;;41.05;27.23;;;17.10;99.90;;;;;;4976206;28;20030;-95
2021/08/22 04:43:46;;;;;;;32.60;24.50;;;17.20;99.90;;;;;;4956776;28;20026;-96
2021/08/22 04:46:32;;;;;;;39.95;26.42;;;17.20;99.90;;;;;;4957171;28;20086;-96
2021/08/22 04:48:58;;;;;;;38.63;24.55;;;17.20;99.90;;;;;;4937543;29;20202;-95
2021/08/22 04:51:24;;;;;;;29.80;20.92;;;17.20;99.90;;;;;;4952133;29;20051;-95
2021/08/22 04:53:50;;;;;;;27.95;19.17;;;17.20;99.90;;;;;;4952326;29;20070;-96
2021/08/22 04:56:15;;;;;;;28.40;20.13;;;17.20;99.90;;;;;;4934791;29;20514;-96
2021/08/22 04:58:42;;;;;;;32.78;22.25;;;17.20;99.90;;;;;;4956366;29;20031;-96
2021/08/22 05:01:07;;;;;;;38.60;25.38;;;17.20;99.90;;;;;;4944500;29;20074;-96
2021/08/22 05:03:33;;;;;;;36.05;24.60;;;17.30;99.90;;;;;;4940261;29;20108;-96
2021/08/22 05:05:59;;;;;;;40.55;27.88;;;17.20;99.90;;;;;;4943500;29;20054;-96
2021/08/22 05:08:28;;;;;;;45.53;31.30;;;17.20;99.90;;;;;;4962002;29;20041;-95
2021/08/22 05:10:56;;;;;;;45.28;29.05;;;17.20;99.90;;;;;;4960851;29;20086;-95
2021/08/22 05:13:36;;;;;;;36.03;26.60;;;17.20;99.90;;;;;;4943971;29;20043;-96
2021/08/22 05:16:03;;;;;;;;;;;17.30;99.90;;;;;;4942701;29;20042;-94
2021/08/22 05:18:29;;;;;;;43.55;29.85;;;17.30;99.90;;;;;;4958905;29;19942;-96
2021/08/22 05:23:31;;;;;;;45.17;28.90;;;17.30;99.90;;;;;;5010808;28;20050;-96
2021/08/22 05:26:01;;;;;;;41.97;27.92;;;17.30;99.90;;;;;;4984148;23;20123;-92
2021/08/22 05:28:27;;;;;;;42.95;28.15;;;17.30;99.90;;;;;;4965051;28;20022;-95
2021/08/22 05:30:54;;;;;;;41.35;27.58;;;17.30;99.90;;;;;;4961302;28;20035;-96
2021/08/22 05:33:23;;;;;;;44.85;29.58;;;17.30;99.90;;;;;;4978736;28;20035;-96
2021/08/22 05:35:49;;;;;;;43.20;29.30;;;17.30;99.90;;;;;;4961983;28;20039;-96
2021/08/22 05:38:16;;;;;;;46.88;28.80;;;17.30;99.90;;;;;;4976244;28;20053;-95
2021/08/22 05:40:41;;;;;;;42.47;27.83;;;17.20;99.90;;;;;;4973387;28;20106;-96
2021/08/22 05:43:08;;;;;;;46.78;29.05;;;17.30;99.90;;;;;;5021835;23;20053;-94
2021/08/22 05:45:37;;;;;;;43.80;27.08;;;17.30;99.90;;;;;;5027387;23;20058;-96
2021/08/22 05:48:03;;;;;;;46.50;31.95;;;17.30;99.90;;;;;;4982115;28;20038;-96
2021/08/22 05:50:30;;;;;;;51.78;32.08;;;17.30;99.90;;;;;;4977622;28;20062;-95
2021/08/22 05:52:55;;;;;;;45.90;29.83;;;17.30;99.90;;;;;;4978047;28;20185;-93
2021/08/22 05:55:21;;;;;;;50.30;31.42;;;17.40;99.90;;;;;;4995821;28;20027;-94
2021/08/22 05:57:54;;;;;;;45.72;29.73;;;17.40;99.90;;;;;;4981650;28;20030;-96
2021/08/22 06:00:20;;;;;;;50.97;31.67;;;17.40;99.90;;;;;;4997619;28;20043;-94
2021/08/22 06:02:46;;;;;;;41.83;26.38;;;17.40;99.90;;;;;;4990033;28;20064;-95
2021/08/22 06:05:11;;;;;;;43.08;27.33;;;17.50;99.90;;;;;;4974369;28;20041;-96
2021/08/22 06:07:37;;;;;;;39.95;25.63;;;17.50;99.90;;;;;;4974819;28;20489;-93
2021/08/22 06:10:06;;;;;;;37.72;25.20;;;17.60;99.90;;;;;;4973918;28;20026;-94
2021/08/22 06:12:32;;;;;;;34.28;21.33;;;17.70;99.90;;;;;;4989802;28;20104;-95
2021/08/22 06:14:58;;;;;;;29.83;20.02;;;17.80;99.90;;;;;;4990055;28;20125;-94
2021/08/22 06:17:23;;;;;;;32.53;21.17;;;17.90;99.90;;;;;;4970498;28;20027;-94
2021/08/22 06:19:49;;;;;;;35.90;23.00;;;18.00;99.90;;;;;;4955133;28;20062;-94
2021/08/22 06:22:15;;;;;;;39.83;25.35;;;18.00;99.90;;;;;;4955559;28;20039;-95
2021/08/22 06:24:44;;;;;;;42.78;27.58;;;18.00;99.90;;;;;;4959185;28;20027;-96
2021/08/22 06:27:10;;;;;;;49.00;30.13;;;17.90;99.90;;;;;;4966395;28;20034;-94
2021/08/22 06:29:35;;;;;;;39.95;24.52;;;17.80;99.90;;;;;;4972976;28;20031;-96
2021/08/22 06:32:01;;;;;;;45.95;29.17;;;17.80;99.90;;;;;;4958166;28;20074;-94
2021/08/22 06:34:27;;;;;;;40.20;26.70;;;17.80;99.90;;;;;;4989082;28;20058;-94
2021/08/22 06:36:53;;;;;;;42.50;27.88;;;17.90;99.90;;;;;;4957550;28;20030;-96
2021/08/22 06:39:19;;;;;;;46.08;28.42;;;17.90;99.90;;;;;;4975212;28;20027;-94
2021/08/22 06:41:45;;;;;;;42.17;26.63;;;17.90;99.90;;;;;;4956668;28;20045;-95
2021/08/22 06:44:11;;;;;;;39.67;26.58;;;17.90;99.90;;;;;;4958233;28;20038;-96
2021/08/22 06:46:43;;;;;;;39.55;26.08;;;17.90;99.90;;;;;;4960387;28;20035;-94
2021/08/22 06:49:10;;;;;;;49.42;30.77;;;17.80;99.90;;;;;;4977726;28;20553;-96
2021/08/22 06:51:36;;;;;;;42.83;25.77;;;17.70;99.90;;;;;;4971924;28;20066;-95
2021/08/22 06:54:02;;;;;;;35.72;22.05;;;18.00;99.90;;;;;;4955441;28;20035;-96
2021/08/22 06:56:28;;;;;;;34.35;22.77;;;18.10;99.90;;;;;;4971871;28;20084;-96
2021/08/22 06:58:54;;;;;;;41.88;27.15;;;18.20;99.90;;;;;;4957439;28;20090;-95
2021/08/22 07:01:19;;;;;;;34.88;23.02;;;18.10;99.90;;;;;;4964518;28;20034;-95
2021/08/22 07:03:45;;;;;;;35.22;22.38;;;18.20;99.90;;;;;;5005973;28;20038;-94
2021/08/22 07:06:10;;;;;;;27.92;18.77;;;18.30;99.90;;;;;;4973357;28;20059;-94
2021/08/22 07:08:36;;;;;;;27.98;18.17;;;18.40;99.90;;;;;;4973460;28;20034;-94
2021/08/22 07:11:02;;;;;;;25.38;18.75;;;18.30;99.90;;;;;;4979540;28;20054;-96
2021/08/22 07:13:27;;;;;;;27.50;18.13;;;18.30;99.90;;;;;;4970743;28;20156;-88
2021/08/22 07:15:53;;;;;;;34.88;22.98;;;18.20;99.90;;;;;;4954389;28;20031;-88
2021/08/22 07:18:19;;;;;;;33.85;22.08;;;18.20;99.90;;;;;;4987536;28;20040;-89
2021/08/22 07:20:45;;;;;;;48.72;31.00;;;18.00;99.90;;;;;;4990226;28;20034;-89
2021/08/22 07:23:10;;;;;;;43.95;28.27;;;17.80;99.90;;;;;;4973690;28;20069;-91
2021/08/22 07:25:36;;;;;;;37.65;24.45;;;17.90;99.90;;;;;;4973769;28;20041;-89
2021/08/22 07:28:02;;;;;;;41.92;29.80;;;18.00;99.90;;;;;;4989098;28;20038;-90
2021/08/22 07:30:27;;;;;;;43.70;30.45;;;17.90;99.90;;;;;;4972567;28;20031;-90
2021/08/22 07:32:53;;;;;;;41.88;29.20;;;17.70;99.90;;;;;;4966879;28;20043;-91
2021/08/22 07:35:19;;;;;;;39.22;26.55;;;17.90;99.90;;;;;;4967655;28;20030;-93
2021/08/22 07:37:45;;;;;;;36.35;26.60;;;17.90;99.90;;;;;;4961018;28;20501;-93
2021/08/22 07:40:12;;;;;;;44.15;28.58;;;17.80;99.90;;;;;;4982819;28;20054;-90
2021/08/22 07:42:38;;;;;;;39.30;27.20;;;17.80;99.90;;;;;;4981361;28;20111;-89
2021/08/22 07:45:05;;;;;;;40.58;29.92;;;17.80;99.90;;;;;;4959499;28;20050;-89
2021/08/22 07:47:30;;;;;;;40.65;30.35;;;17.90;99.90;;;;;;4973333;28;20475;-88
2021/08/22 07:49:56;;;;;;;45.70;30.40;;;17.90;99.90;;;;;;4958374;28;20238;-88
2021/08/22 07:52:24;;;;;;;34.20;25.17;;;17.90;99.90;;;;;;4959126;28;20042;-88
2021/08/22 07:54:50;;;;;;;30.23;22.42;;;18.10;99.90;;;;;;4960288;28;20031;-95
2021/08/22 07:57:17;;;;;;;34.03;24.38;;;18.30;99.90;;;;;;4961635;28;20034;-89
2021/08/22 07:59:43;;;;;;;34.88;26.33;;;18.30;99.90;;;;;;4959691;28;20031;-92
2021/08/22 08:02:09;;;;;;;39.08;27.42;;;18.50;99.90;;;;;;4959559;28;20038;-89
2021/08/22 08:04:34;;;;;;;27.23;20.88;;;18.50;99.90;;;;;;4974625;28;20027;-88
2021/08/22 08:07:00;;;;;;;25.40;20.33;;;18.80;99.90;;;;;;4974727;28;20062;-90
2021/08/22 08:09:26;;;;;;;24.00;17.92;;;19.00;99.90;;;;;;4958490;28;20195;-90
2021/08/22 08:11:51;;;;;;;38.08;27.85;;;19.10;99.90;;;;;;4973523;28;20110;-87
2021/08/22 08:14:17;;;;;;;31.73;24.42;;;18.80;99.90;;;;;;4957765;28;20500;-90
2021/08/22 08:16:44;;;;;;;25.65;21.50;;;18.90;99.90;;;;;;4963418;28;20054;-89
2021/08/22 08:19:10;;;;;;;31.98;23.98;;;19.20;99.90;;;;;;4977079;28;20027;-92
2021/08/22 08:21:36;;;;;;;31.77;24.42;;;19.30;99.90;;;;;;4976149;28;20049;-91
2021/08/22 08:24:02;;;;;;;26.92;22.35;;;19.30;99.90;;;;;;4977344;28;20027;-88
2021/08/22 08:26:27;;;;;;;30.38;22.95;;;19.20;99.90;;;;;;4976615;28;20038;-90
2021/08/22 08:28:53;;;;;;;26.42;19.88;;;19.30;99.90;;;;;;4977641;28;20030;-93
2021/08/22 08:31:19;;;;;;;26.15;20.88;;;19.40;99.90;;;;;;4977768;28;20061;-95
2021/08/22 08:33:44;;;;;;;26.15;21.27;;;19.60;99.90;;;;;;4993971;28;20082;-96
2021/08/22 08:36:10;;;;;;;23.00;18.25;;;19.60;99.90;;;;;;4964836;28;20111;-93
2021/08/22 08:38:36;;;;;;;21.45;18.02;;;19.50;99.90;;;;;;4956932;28;20061;-90
2021/08/22 08:41:05;;;;;;;20.17;15.15;;;19.40;99.90;;;;;;4974497;28;20027;-91
2021/08/22 08:43:30;;;;;;;22.35;17.05;;;19.80;99.90;;;;;;4991302;28;20026;-94
2021/08/22 08:46:02;;;;;;;18.50;15.18;;;19.80;99.90;;;;;;4958385;28;20046;-89
2021/08/22 08:48:31;;;;;;;19.38;16.42;;;19.80;99.90;;;;;;4974652;28;20038;-91
2021/08/22 08:51:17;;;;;;;26.52;17.52;;;19.50;99.90;;;;;;4974039;28;20038;-91
2021/08/22 08:53:47;;;;;;;23.17;17.58;;;19.30;99.90;;;;;;4957198;28;20053;-95
2021/08/22 08:56:17;;;;;;;17.83;14.60;;;19.10;99.90;;;;;;4974243;28;20037;-91
2021/08/22 08:58:43;;;;;;;23.75;18.17;;;19.50;99.90;;;;;;4974400;28;20038;-92
2021/08/22 09:01:08;;;;;;;19.70;16.25;;;19.20;99.90;;;;;;4993512;28;20031;-95
2021/08/22 09:03:36;;;;;;;18.98;16.95;;;19.30;99.90;;;;;;4961465;28;20039;-89
2021/08/22 09:06:04;;;;;;;15.75;13.38;;;19.30;99.90;;;;;;4960745;28;20035;-95
2021/08/22 09:09:07;;;;;;;18.15;16.10;;;19.50;99.90;;;;;;4960512;28;20041;-90
2021/08/22 09:12:03;;;;;;;22.13;18.63;;;19.50;99.90;;;;;;4959003;28;20106;-91
2021/08/22 09:15:07;;;;;;;21.85;18.30;;;19.60;99.90;;;;;;4971831;28;20031;-91
2021/08/22 09:18:03;;;;;;;24.20;18.80;;;19.60;99.90;;;;;;4967697;28;20035;-90
2021/08/22 09:20:48;;;;;;;24.33;18.25;;;19.90;99.90;;;;;;4982603;28;20053;-95
2021/08/22 09:23:38;;;;;;;19.67;17.65;;;20.50;99.90;;;;;;4967190;28;20026;-92
2021/08/22 09:26:38;;;;;;;17.40;13.77;;;20.70;99.90;;;;;;4965072;28;20035;-92
2021/08/22 09:29:29;;;;;;;14.48;12.95;;;20.80;99.90;;;;;;4977991;28;20503;-89
2021/08/22 09:32:32;;;;;;;20.73;16.55;;;20.40;99.90;;;;;;4967101;28;20035;-93
2021/08/22 09:35:26;;;;;;;15.23;13.63;;;20.40;99.90;;;;;;4984762;28;20110;-88
2021/08/22 09:38:19;;;;;;;16.25;13.68;;;20.50;99.90;;;;;;4971484;28;20255;-91
2021/08/22 09:41:19;;;;;;;13.65;12.25;;;20.60;99.90;;;;;;4983423;28;20491;-92
2021/08/22 09:44:30;;;;;;;14.45;12.52;;;21.20;99.90;;;;;;4989234;28;20034;-92
2021/08/22 09:47:41;;;;;;;12.75;10.77;;;20.80;99.90;;;;;;4983018;28;20042;-90
2021/08/22 09:50:44;;;;;;;11.50;9.75;;;21.10;99.90;;;;;;4999386;28;20050;-94
2021/08/22 09:53:37;;;;;;;9.65;8.35;;;21.20;99.90;;;;;;4987501;28;20048;-95
2021/08/22 09:56:41;;;;;;;10.63;9.52;;;21.30;99.90;;;;;;4980923;28;20023;-88
2021/08/22 09:59:45;;;;;;;11.15;9.88;;;21.20;99.90;;;;;;4998502;28;20026;-90
2021/08/22 10:02:33;;;;;;;12.77;10.05;;;20.60;99.90;;;;;;4942236;28;20039;-90
2021/08/22 10:05:23;;;;;;;11.38;9.05;;;20.60;99.90;;;;;;4977442;28;20030;-91
2021/08/22 10:07:55;;;;;;;8.40;7.32;;;20.30;99.90;;;;;;4978973;28;20023;-90
2021/08/22 10:10:43;;;;;;;7.68;6.97;;;20.40;99.90;;;;;;4976095;28;20037;-88
2021/08/22 10:13:18;;;;;;;9.75;8.75;;;20.10;99.90;;;;;;4984352;28;20035;-90
2021/08/22 10:15:44;;;;;;;10.57;9.23;;;19.90;99.90;;;;;;4978004;28;20023;-91
2021/08/22 10:18:10;;;;;;;11.40;9.43;;;19.60;99.90;;;;;;4957311;28;20046;-95
2021/08/22 10:21:00;;;;;;;8.82;7.72;;;19.70;99.90;;;;;;4959250;28;20027;-91
2021/08/22 10:23:38;;;;;;;11.25;9.07;;;19.60;99.90;;;;;;4961527;28;20047;-91
2021/08/22 10:26:08;;;;;;;10.35;8.85;;;19.60;99.90;;;;;;4957700;28;20027;-93
2021/08/22 10:28:54;;;;;;;11.55;9.40;;;19.40;99.90;;;;;;4955567;28;20045;-92
2021/08/22 10:31:59;;;;;;;10.93;9.80;;;19.30;99.90;;;;;;4961224;28;20034;-94
2021/08/22 10:34:44;;;;;;;13.05;11.75;;;19.20;99.90;;;;;;4958112;28;20045;-92
2021/08/22 10:37:24;;;;;;;13.55;11.85;;;19.40;99.90;;;;;;4974962;28;20065;-91
2021/08/22 10:39:50;;;;;;;8.30;6.00;;;18.90;99.90;;;;;;4972302;28;20034;-92
2021/08/22 10:42:21;;;;;;;7.97;6.13;;;18.40;99.90;;;;;;4959623;28;20038;-89
2021/08/22 10:44:46;;;;;;;7.90;6.45;;;18.20;99.90;;;;;;4973795;28;20043;-89
2021/08/22 10:47:33;;;;;;;8.38;6.88;;;18.20;99.90;;;;;;4973394;28;20041;-87
2021/08/22 10:50:00;;;;;;;10.60;7.68;;;18.50;99.90;;;;;;4981361;28;20027;-90
2021/08/22 10:52:28;;;;;;;10.70;9.55;;;18.30;99.90;;;;;;4953665;28;20043;-89
2021/08/22 10:55:13;;;;;;;10.25;8.18;;;18.40;99.90;;;;;;4938361;28;20138;-87
2021/08/22 10:57:42;;;;;;;13.38;12.00;;;18.80;99.90;;;;;;4953596;28;20030;-88
2021/08/22 11:00:26;;;;;;;11.70;9.90;;;18.80;99.90;;;;;;4969927;28;20035;-88
2021/08/22 11:02:57;;;;;;;17.02;13.75;;;19.00;99.90;;;;;;4954061;28;20050;-88
2021/08/22 11:05:27;;;;;;;14.32;12.82;;;19.40;99.90;;;;;;4969735;28;20059;-88
2021/08/22 11:10:34;;;;;;;15.55;13.43;;;19.80;99.90;;;;;;5033973;23;20353;-88
2021/08/22 11:13:00;;;;;;;15.82;13.10;;;19.90;99.90;;;;;;5024725;23;20188;-90
2021/08/22 11:15:27;;;;;;;15.95;12.93;;;19.70;99.90;;;;;;4991650;28;20034;-87
2021/08/22 11:17:55;;;;;;;17.48;12.70;;;19.60;99.90;;;;;;4990010;28;20061;-86
2021/08/22 11:20:26;;;;;;;11.90;10.38;;;19.80;99.90;;;;;;4972246;28;20386;-86
2021/08/22 11:23:04;;;;;;;12.65;10.43;;;20.10;99.90;;;;;;4974405;28;20050;-86
2021/08/22 11:25:31;;;;;;;11.23;7.82;;;20.20;99.90;;;;;;4973412;28;20031;-88
2021/08/22 11:28:14;;;;;;;10.73;9.50;;;20.10;99.90;;;;;;4973026;28;20043;-86
2021/08/22 11:30:42;;;;;;;11.88;9.13;;;20.00;99.90;;;;;;4974928;28;20034;-89
2021/08/22 11:33:11;;;;;;;12.60;10.40;;;19.80;99.90;;;;;;4973375;28;20045;-91
2021/08/22 11:35:38;;;;;;;11.60;9.32;;;19.70;99.90;;;;;;4971742;28;20034;-88
2021/08/22 11:38:05;;;;;;;12.65;9.60;;;19.60;99.90;;;;;;4971445;28;20482;-86
2021/08/22 11:40:32;;;;;;;14.10;10.15;;;19.70;99.90;;;;;;4971771;28;20114;-91
2021/08/22 11:43:03;;;;;;;10.27;9.07;;;19.80;99.90;;;;;;4972586;28;20037;-89
2021/08/22 11:48:37;;;;;;;11.38;9.70;;;20.00;99.90;;;;;;4909517;29;20044;-90
2021/08/22 11:51:05;;;;;;;12.25;10.00;;;19.80;99.90;;;;;;4910974;29;20102;-91
2021/08/22 11:53:31;;;;;;;9.77;7.60;;;19.70;99.90;;;;;;4911151;29;20044;-89
2021/08/22 11:55:57;;;;;;;8.85;6.57;;;19.90;99.90;;;;;;4911333;29;20060;-88
2021/08/22 11:58:23;;;;;;;7.07;6.35;;;20.50;99.90;;;;;;4911004;29;20108;-88
2021/08/22 12:00:56;;;;;;;9.43;7.93;;;21.60;99.90;;;;;;4926600;29;20044;-91
2021/08/22 12:03:24;;;;;;;9.15;8.20;;;21.30;99.90;;;;;;4911386;29;20140;-90
2021/08/22 12:05:58;;;;;;;6.75;6.13;;;20.80;99.90;;;;;;4913062;29;20051;-93
2021/08/22 12:08:25;;;;;;;7.95;6.47;;;21.00;99.90;;;;;;4896118;29;20047;-89
2021/08/22 12:11:10;;;;;;;9.75;7.60;;;21.10;99.90;;;;;;4911384;29;20039;-88
2021/08/22 12:13:38;;;;;;;10.35;8.93;;;20.60;99.90;;;;;;4910497;29;20171;-92
2021/08/22 12:16:31;;;;;;;10.68;8.32;;;20.50;99.90;;;;;;4894897;29;20039;-91
2021/08/22 12:19:20;;;;;;;11.45;9.15;;;20.70;99.90;;;;;;4892269;29;20072;-91
2021/08/22 12:21:47;;;;;;;10.25;7.72;;;20.40;99.90;;;;;;4876794;29;20033;-93
2021/08/22 12:24:23;;;;;;;12.25;8.18;;;20.50;99.90;;;;;;4891775;29;20036;-89
2021/08/22 12:26:54;;;;;;;7.50;6.65;;;21.00;99.90;;;;;;4963640;28;20050;-88
2021/08/22 12:29:30;;;;;;;8.23;6.25;;;21.30;99.90;;;;;;4989937;28;20041;-93
2021/08/22 12:32:06;;;;;;;7.57;5.22;;;21.90;99.90;;;;;;4991972;28;20044;-91
2021/08/22 12:34:31;;;;;;;7.15;5.55;;;22.00;99.90;;;;;;4978962;28;20037;-89
2021/08/22 12:37:13;;;;;;;7.10;5.95;;;21.50;99.90;;;;;;4994341;28;20030;-92
2021/08/22 12:39:40;;;;;;;8.88;7.97;;;21.60;99.90;;;;;;4975907;28;20470;-88
2021/08/22 12:42:06;;;;;;;7.95;7.13;;;21.40;99.90;;;;;;4975795;28;20491;-87
2021/08/22 12:44:32;;;;;;;8.25;7.25;;;21.60;99.90;;;;;;4991469;28;20038;-88
2021/08/22 12:47:00;;;;;;;8.38;7.40;;;21.70;99.90;;;;;;4998273;23;20045;-87
2021/08/22 12:49:27;;;;;;;7.82;6.63;;;21.60;99.90;;;;;;4975177;28;20053;-86
2021/08/22 12:51:59;;;;;;;8.65;7.07;;;21.50;99.90;;;;;;4975532;28;20053;-89
2021/08/22 12:54:26;;;;;;;8.40;7.38;;;21.60;99.90;;;;;;4975168;28;20034;-86
2021/08/22 12:56:56;;;;;;;11.32;7.90;;;21.40;99.90;;;;;;4991531;28;20042;-84
2021/08/22 12:59:21;;;;;;;7.07;5.35;;;22.00;99.90;;;;;;4975458;28;20038;-86
2021/08/22 13:01:48;;;;;;;8.48;7.45;;;22.50;99.90;;;;;;4975381;28;20038;-87
2021/08/22 13:04:17;;;;;;;12.52;8.68;;;21.80;99.90;;;;;;4975001;28;20069;-88
2021/08/22 13:06:43;;;;;;;10.13;8.27;;;21.70;99.90;;;;;;4975162;28;20034;-89
2021/08/22 13:09:08;;;;;;;9.77;7.93;;;21.60;99.90;;;;;;4975229;28;20046;-87
2021/08/22 13:11:35;;;;;;;10.40;7.80;;;21.90;99.90;;;;;;4975145;28;20058;-87
2021/08/22 13:14:01;;;;;;;8.50;6.97;;;21.80;99.90;;;;;;4974980;28;20058;-87
2021/08/22 13:16:27;;;;;;;7.43;6.63;;;22.00;99.90;;;;;;4974748;28;20045;-88
2021/08/22 13:18:53;;;;;;;8.27;7.15;;;22.20;99.90;;;;;;4990897;28;20080;-89
2021/08/22 13:21:22;;;;;;;5.25;4.70;;;21.80;99.90;;;;;;4991544;28;20137;-86
2021/08/22 13:23:51;;;;;;;11.05;7.68;;;21.60;99.90;;;;;;4991059;28;20505;-88
2021/08/22 13:26:17;;;;;;;5.75;3.80;;;21.30;99.90;;;;;;4971099;28;20045;-86
2021/08/22 13:28:42;;;;;;;6.43;3.17;;;20.70;99.90;;;;;;4971448;28;20031;-89